Springfield, Tennessee
Current Conditions -  °F | °C
As of 2:53 PM on Thursday 20 Nov 2014 (Local Time) from KBNA Reporting Station
Clear Clear  
Wind Chill: 46°   Ceiling: Unl
Heat Index: 49°   Visibility: 10mi
Dew Point: 16°   Wind: 7mph
Humidity: 27%   Direction: 290°WNW
Pressure: 30.21"   Gusts: NA
Location:  36.51°N, 86.88°W
Report Text: KBNA 202053Z 29006KT 10SM CLR 09/M09 A3021 RMK AO2 SLP230 T00941089 56013
Loading
Personal Weather Stations






























Interactive Weather Map New forecast layout! Learn more

10-Day Weather Forecast

Advertisements
Track Severe Weather on mobile